Time;durP1;ratioP1;P1;durP2;ratioP2;P2;SDS_P1;SDS_P2;PMS_P1;PMS_P2;Temp;Humidity;BMP_temperature;BMP_pressure;BME280_temperature;BME280_humidity;BME280_pressure;Samples;Min_cycle;Max_cycle;Signal;HPM_P1;HPM_P2
2022/05/31 00:01:32;;;;;;;0.30;0.30;;;9.70;96.10;;;;;;5033404;28;20520;-70
2022/05/31 00:03:58;;;;;;;0.30;0.30;;;9.80;96.10;;;;;;5033425;28;20205;-70
2022/05/31 00:06:23;;;;;;;0.30;0.30;;;9.70;96.00;;;;;;5033412;28;20630;-69
2022/05/31 00:08:49;;;;;;;0.30;0.30;;;9.80;96.40;;;;;;5033768;28;20249;-70
2022/05/31 00:11:15;;;;;;;0.30;0.30;;;9.90;96.50;;;;;;5033236;28;20241;-70
2022/05/31 00:13:40;;;;;;;0.30;0.30;;;9.90;96.00;;;;;;5031941;28;20175;-69
2022/05/31 00:16:06;;;;;;;0.40;0.40;;;10.00;95.30;;;;;;5033246;28;20170;-69
2022/05/31 00:18:32;;;;;;;0.30;0.30;;;10.00;95.10;;;;;;5031780;28;20790;-70
2022/05/31 00:20:58;;;;;;;0.33;0.33;;;10.00;95.10;;;;;;5033217;28;20441;-69
2022/05/31 00:23:23;;;;;;;0.30;0.30;;;10.00;95.00;;;;;;5033038;28;20171;-69
2022/05/31 00:25:49;;;;;;;0.30;0.30;;;10.10;95.10;;;;;;5033243;28;20672;-69
2022/05/31 00:28:15;;;;;;;0.30;0.30;;;10.10;95.50;;;;;;5033361;28;20195;-70
2022/05/31 00:30:41;;;;;;;0.30;0.30;;;10.10;95.10;;;;;;5033410;28;20426;-70
2022/05/31 00:33:09;;;;;;;0.30;0.30;;;10.20;95.20;;;;;;5032980;28;20231;-70
2022/05/31 00:35:40;;;;;;;0.30;0.30;;;10.10;95.00;;;;;;5033241;28;20597;-69
2022/05/31 00:38:07;;;;;;;0.40;0.40;;;10.20;95.30;;;;;;5033115;28;20257;-70
2022/05/31 00:40:34;;;;;;;0.30;0.30;;;10.20;95.50;;;;;;5032933;28;20274;-70
2022/05/31 00:43:03;;;;;;;0.30;0.30;;;10.00;95.10;;;;;;5032895;28;20190;-70
2022/05/31 00:45:41;;;;;;;0.30;0.30;;;10.10;95.20;;;;;;5032855;28;20295;-70
2022/05/31 00:48:12;;;;;;;0.30;0.30;;;9.90;96.40;;;;;;5033063;28;20519;-69
2022/05/31 00:50:45;;;;;;;0.30;0.30;;;9.90;96.10;;;;;;5033153;28;20556;-70
2022/05/31 00:53:16;;;;;;;0.30;0.30;;;9.90;96.10;;;;;;5033091;28;20163;-69
2022/05/31 00:55:50;;;;;;;0.30;0.30;;;9.80;96.30;;;;;;5033176;28;20263;-70
2022/05/31 00:58:34;;;;;;;0.30;0.30;;;9.80;96.30;;;;;;5032983;28;20174;-71
2022/05/31 01:01:04;;;;;;;0.30;0.30;;;9.70;95.80;;;;;;5033430;28;20686;-71
2022/05/31 01:03:31;;;;;;;0.30;0.30;;;9.80;95.80;;;;;;5036379;28;20186;-71
2022/05/31 01:05:56;;;;;;;0.30;0.30;;;9.80;95.90;;;;;;5035164;28;20762;-71
2022/05/31 01:08:22;;;;;;;0.30;0.30;;;9.70;95.70;;;;;;5036539;28;20210;-71
2022/05/31 01:10:48;;;;;;;0.30;0.30;;;9.70;96.00;;;;;;5036533;28;20274;-71
2022/05/31 01:13:16;;;;;;;0.30;0.30;;;9.70;95.80;;;;;;5036136;28;20182;-71
2022/05/31 01:15:43;;;;;;;0.30;0.30;;;9.60;96.10;;;;;;5035021;28;20504;-71
2022/05/31 01:18:09;;;;;;;0.30;0.30;;;9.60;96.00;;;;;;5036385;28;20178;-71
2022/05/31 01:20:35;;;;;;;0.30;0.30;;;9.60;95.70;;;;;;5036036;28;20218;-71
2022/05/31 01:23:07;;;;;;;0.30;0.30;;;9.60;95.80;;;;;;5036030;28;20171;-71
2022/05/31 01:26:06;;;;;;;0.30;0.30;;;9.60;95.90;;;;;;5035972;28;20201;-71
2022/05/31 01:28:50;;;;;;;0.30;0.30;;;9.50;95.80;;;;;;5036073;28;20166;-71
2022/05/31 01:31:29;;;;;;;0.30;0.30;;;9.50;95.90;;;;;;5034778;28;20233;-71
2022/05/31 01:34:08;;;;;;;0.40;0.40;;;9.40;95.80;;;;;;5035711;28;20158;-71
2022/05/31 01:36:40;;;;;;;0.40;0.40;;;9.30;96.10;;;;;;5035881;28;20256;-71
2022/05/31 01:39:15;;;;;;;0.30;0.30;;;9.20;96.00;;;;;;5035871;28;20232;-71
2022/05/31 01:42:04;;;;;;;0.30;0.30;;;9.30;96.90;;;;;;5034491;28;20197;-71
2022/05/31 01:44:32;;;;;;;0.30;0.30;;;9.20;96.80;;;;;;5035818;28;20180;-71
2022/05/31 01:47:00;;;;;;;0.30;0.30;;;9.20;96.70;;;;;;5035592;28;20259;-71
2022/05/31 01:49:33;;;;;;;0.30;0.30;;;9.10;95.90;;;;;;5035692;28;20174;-71
2022/05/31 01:51:59;;;;;;;0.88;0.88;;;9.20;96.40;;;;;;5035563;28;20221;-70
2022/05/31 01:54:26;;;;;;;0.30;0.30;;;9.30;96.20;;;;;;5035623;28;20220;-70
2022/05/31 01:56:57;;;;;;;0.30;0.30;;;9.30;95.00;;;;;;5034233;28;20244;-71
2022/05/31 01:59:24;;;;;;;0.30;0.30;;;9.40;95.20;;;;;;5035832;28;20259;-71
2022/05/31 02:01:52;;;;;;;0.30;0.30;;;9.50;95.80;;;;;;5035358;28;20202;-71
2022/05/31 02:04:18;;;;;;;0.30;0.30;;;9.50;96.00;;;;;;5033992;28;20175;-71
2022/05/31 02:06:45;;;;;;;0.40;0.40;;;9.60;96.00;;;;;;5035333;28;20214;-71
2022/05/31 02:09:13;;;;;;;0.30;0.30;;;9.50;95.90;;;;;;5035424;28;20170;-71
2022/05/31 02:11:39;;;;;;;0.30;0.30;;;9.50;96.00;;;;;;5034715;28;20605;-71
2022/05/31 02:14:07;;;;;;;0.30;0.30;;;9.40;96.00;;;;;;5034970;28;20202;-71
2022/05/31 02:16:33;;;;;;;0.30;0.30;;;9.50;96.40;;;;;;5035317;28;20269;-71
2022/05/31 02:21:43;;;;;;;0.30;0.30;;;9.60;96.50;;;;;;5034937;28;20271;-71
2022/05/31 02:24:11;;;;;;;0.30;0.30;;;9.60;96.20;;;;;;5034830;28;20175;-71
2022/05/31 02:26:41;;;;;;;0.30;0.30;;;9.60;96.00;;;;;;5034835;28;20504;-71
2022/05/31 02:29:09;;;;;;;0.30;0.30;;;9.60;96.00;;;;;;5034906;28;20257;-71
2022/05/31 02:31:36;;;;;;;0.60;0.60;;;9.60;96.20;;;;;;5034824;28;20187;-71
2022/05/31 02:34:03;;;;;;;0.30;0.30;;;9.60;96.00;;;;;;5034832;28;20182;-71
2022/05/31 02:36:29;;;;;;;0.30;0.30;;;9.50;95.50;;;;;;5034902;28;20261;-71
2022/05/31 02:38:55;;;;;;;0.30;0.30;;;9.70;96.10;;;;;;5034612;28;20201;-71
2022/05/31 02:41:21;;;;;;;0.30;0.30;;;9.80;96.50;;;;;;5034591;28;20792;-71
2022/05/31 02:43:47;;;;;;;0.40;0.40;;;9.90;96.40;;;;;;5034498;28;20221;-71
2022/05/31 02:46:13;;;;;;;0.30;0.30;;;10.00;95.60;;;;;;5034587;28;20205;-71
2022/05/31 02:48:39;;;;;;;0.30;0.30;;;10.00;95.50;;;;;;5034695;28;20507;-71
2022/05/31 02:51:05;;;;;;;0.30;0.30;;;10.10;95.40;;;;;;5034586;28;20552;-71
2022/05/31 02:53:31;;;;;;;0.30;0.30;;;10.10;95.50;;;;;;5034256;28;20405;-71
2022/05/31 02:55:57;;;;;;;0.30;0.30;;;10.10;95.60;;;;;;5034399;28;20420;-71
2022/05/31 02:58:24;;;;;;;0.30;0.30;;;10.10;95.70;;;;;;5033136;28;20492;-71
2022/05/31 03:00:50;;;;;;;0.30;0.30;;;10.20;95.60;;;;;;5034295;28;20221;-71
2022/05/31 03:03:16;;;;;;;0.30;0.30;;;10.20;95.30;;;;;;5034058;28;20175;-71
2022/05/31 03:05:41;;;;;;;0.30;0.30;;;10.20;95.60;;;;;;5034553;28;20206;-71
2022/05/31 03:08:07;;;;;;;0.30;0.30;;;10.10;96.40;;;;;;5034138;28;20171;-71
2022/05/31 03:10:36;;;;;;;0.30;0.30;;;10.00;96.50;;;;;;5033951;28;20205;-71
2022/05/31 03:13:02;;;;;;;0.30;0.30;;;10.00;96.80;;;;;;5032867;28;20186;-71
2022/05/31 03:15:34;;;;;;;0.50;0.50;;;10.10;96.80;;;;;;5034183;28;20174;-71
2022/05/31 03:18:07;;;;;;;0.30;0.30;;;10.20;96.30;;;;;;5034156;28;20262;-71
2022/05/31 03:20:51;;;;;;;0.30;0.30;;;10.20;96.30;;;;;;5033793;28;20705;-71
2022/05/31 03:23:20;;;;;;;0.30;0.30;;;10.10;96.20;;;;;;5033942;28;20225;-71
2022/05/31 03:25:48;;;;;;;0.30;0.30;;;10.00;96.30;;;;;;5033770;28;20538;-71
2022/05/31 03:28:14;;;;;;;0.30;0.30;;;10.00;96.30;;;;;;5033985;28;20174;-71
2022/05/31 03:30:40;;;;;;;0.38;0.38;;;10.00;96.20;;;;;;5033643;28;20562;-71
2022/05/31 03:33:09;;;;;;;0.40;0.40;;;9.90;96.70;;;;;;5033768;28;20171;-71
2022/05/31 03:35:35;;;;;;;0.30;0.30;;;10.00;96.10;;;;;;5033759;28;20534;-71
2022/05/31 03:38:01;;;;;;;0.30;0.30;;;10.10;96.00;;;;;;5033903;28;20179;-71
2022/05/31 03:43:11;;;;;;;0.30;0.30;;;10.20;96.10;;;;;;5033501;28;20647;-71
2022/05/31 03:45:39;;;;;;;0.30;0.30;;;10.40;96.00;;;;;;5033506;28;20232;-71
2022/05/31 03:48:06;;;;;;;0.30;0.30;;;10.40;96.00;;;;;;5033735;28;20163;-71
2022/05/31 03:50:32;;;;;;;0.30;0.30;;;10.50;96.20;;;;;;5033573;28;20227;-71
2022/05/31 03:52:58;;;;;;;0.30;0.30;;;10.50;96.10;;;;;;5033415;28;20297;-71
2022/05/31 03:55:24;;;;;;;0.30;0.30;;;10.50;96.50;;;;;;5033632;28;20203;-71
2022/05/31 03:57:51;;;;;;;0.30;0.30;;;10.60;96.30;;;;;;5033564;28;20409;-71
2022/05/31 04:00:19;;;;;;;0.30;0.30;;;10.60;96.20;;;;;;5033380;28;20587;-71
2022/05/31 04:02:45;;;;;;;1.65;1.60;;;10.60;96.20;;;;;;5033361;28;20206;-71
2022/05/31 04:05:12;;;;;;;0.40;0.40;;;10.60;96.20;;;;;;5033542;28;20218;-71
2022/05/31 04:07:38;;;;;;;0.30;0.30;;;10.60;96.30;;;;;;5033366;28;20209;-71
2022/05/31 04:10:06;;;;;;;0.30;0.30;;;10.60;96.40;;;;;;5033466;28;20198;-71
2022/05/31 04:12:37;;;;;;;0.30;0.30;;;10.70;96.40;;;;;;5033076;28;20440;-71
2022/05/31 04:15:03;;;;;;;0.30;0.30;;;10.80;96.40;;;;;;5033504;28;20182;-71
2022/05/31 04:17:29;;;;;;;0.40;0.40;;;10.80;96.20;;;;;;5033341;28;20186;-71
2022/05/31 04:19:54;;;;;;;0.30;0.30;;;10.90;95.80;;;;;;5033023;28;20655;-71
2022/05/31 04:22:20;;;;;;;0.80;0.80;;;10.70;96.30;;;;;;5031812;28;20178;-71
2022/05/31 04:24:46;;;;;;;0.30;0.30;;;10.60;96.10;;;;;;5033363;28;20531;-71
2022/05/31 04:27:16;;;;;;;0.50;0.50;;;10.60;96.60;;;;;;5033164;28;20202;-71
2022/05/31 04:29:42;;;;;;;0.30;0.30;;;10.70;96.20;;;;;;5033225;28;20632;-71
2022/05/31 04:32:08;;;;;;;0.30;0.30;;;10.80;96.80;;;;;;5031624;28;20225;-71
2022/05/31 04:34:34;;;;;;;0.40;0.40;;;11.00;96.60;;;;;;5033300;28;20167;-71
2022/05/31 04:37:00;;;;;;;0.30;0.30;;;11.10;96.10;;;;;;5036916;28;20182;-71
2022/05/31 04:39:26;;;;;;;0.30;0.30;;;11.20;95.60;;;;;;5037083;28;20437;-71
2022/05/31 04:41:51;;;;;;;0.30;0.30;;;11.30;95.20;;;;;;5036841;28;20240;-71
2022/05/31 04:44:18;;;;;;;0.30;0.30;;;11.40;95.30;;;;;;5036758;28;20413;-71
2022/05/31 04:46:44;;;;;;;0.30;0.30;;;11.50;95.70;;;;;;5036810;28;20202;-71
2022/05/31 04:49:09;;;;;;;0.30;0.30;;;11.70;95.70;;;;;;5036884;28;20167;-71
2022/05/31 04:51:35;;;;;;;0.30;0.30;;;11.80;95.70;;;;;;5036726;28;20532;-71
2022/05/31 04:54:02;;;;;;;0.30;0.30;;;11.90;95.50;;;;;;5036535;28;20199;-71
2022/05/31 04:56:29;;;;;;;0.30;0.30;;;12.10;95.30;;;;;;5036854;28;20177;-71
2022/05/31 04:58:54;;;;;;;0.30;0.30;;;12.30;94.60;;;;;;5036645;28;20448;-71
2022/05/31 05:01:21;;;;;;;0.30;0.30;;;12.40;94.00;;;;;;5036567;28;20954;-71
2022/05/31 05:03:47;;;;;;;0.30;0.30;;;12.60;93.80;;;;;;5036291;28;20650;-71
2022/05/31 05:06:14;;;;;;;0.30;0.30;;;12.80;93.60;;;;;;5036527;28;20451;-71
2022/05/31 05:08:41;;;;;;;0.30;0.30;;;13.00;93.30;;;;;;5035320;28;20743;-72
2022/05/31 05:11:09;;;;;;;0.30;0.30;;;13.20;93.20;;;;;;5036461;28;20436;-72
2022/05/31 05:13:35;;;;;;;0.30;0.30;;;13.20;93.10;;;;;;5036278;28;20905;-72
2022/05/31 05:16:02;;;;;;;0.30;0.30;;;13.10;93.00;;;;;;5036055;28;20454;-70
2022/05/31 05:18:29;;;;;;;0.30;0.30;;;13.30;92.50;;;;;;5035360;28;20905;-72
2022/05/31 05:20:59;;;;;;;0.30;0.30;;;13.70;92.60;;;;;;5036820;28;20796;-73
2022/05/31 05:23:25;;;;;;;0.30;0.30;;;14.30;92.40;;;;;;5035141;28;20467;-71
2022/05/31 05:25:52;;;;;;;0.30;0.30;;;14.80;91.50;;;;;;5035846;28;20926;-71
2022/05/31 05:31:03;;;;;;;0.30;0.30;;;15.50;89.60;;;;;;5036279;28;21003;-72
2022/05/31 05:33:29;;;;;;;0.40;0.40;;;15.80;87.80;;;;;;5035719;28;20402;-71
2022/05/31 05:35:55;;;;;;;0.30;0.30;;;16.00;83.40;;;;;;5036105;28;20882;-72
2022/05/31 05:38:21;;;;;;;3.50;0.83;;;16.10;84.50;;;;;;5035898;28;20411;-71
2022/05/31 05:40:47;;;;;;;0.30;0.30;;;16.30;83.90;;;;;;5033537;28;20195;-71
2022/05/31 05:43:13;;;;;;;0.30;0.30;;;16.50;79.60;;;;;;5034705;28;20639;-71
2022/05/31 05:45:38;;;;;;;0.30;0.30;;;16.60;78.40;;;;;;5035847;28;20201;-71
2022/05/31 05:48:05;;;;;;;0.30;0.30;;;16.80;78.60;;;;;;5033485;28;20536;-71
2022/05/31 05:50:34;;;;;;;0.30;0.30;;;17.00;79.50;;;;;;5035073;28;20186;-71
2022/05/31 05:53:03;;;;;;;0.30;0.30;;;17.00;79.80;;;;;;5036043;28;20398;-71
2022/05/31 05:55:29;;;;;;;0.30;0.30;;;16.90;76.50;;;;;;5034085;28;20405;-71
2022/05/31 05:57:54;;;;;;;0.30;0.30;;;17.00;75.30;;;;;;5034892;28;20402;-71
2022/05/31 06:00:21;;;;;;;0.30;0.30;;;17.00;78.80;;;;;;5035468;28;20277;-71
2022/05/31 06:02:55;;;;;;;0.30;0.30;;;17.20;76.70;;;;;;5035202;28;20232;-71
2022/05/31 06:05:24;;;;;;;0.30;0.30;;;17.40;79.30;;;;;;5035522;28;20450;-71
2022/05/31 06:08:14;;;;;;;0.40;0.40;;;17.50;79.60;;;;;;5035400;28;20990;-71
2022/05/31 06:10:45;;;;;;;0.30;0.30;;;17.60;79.10;;;;;;5031229;28;20456;-71
2022/05/31 06:13:26;;;;;;;0.40;0.40;;;18.00;79.30;;;;;;5035180;28;20386;-71
2022/05/31 06:15:55;;;;;;;0.40;0.40;;;18.40;77.00;;;;;;5035313;28;20394;-71
2022/05/31 06:18:26;;;;;;;0.30;0.30;;;18.50;75.20;;;;;;5035220;28;20413;-71
2022/05/31 06:20:57;;;;;;;0.33;0.33;;;18.50;74.70;;;;;;5035227;28;20433;-71
2022/05/31 06:23:23;;;;;;;0.30;0.30;;;18.40;73.10;;;;;;5034855;28;20451;-72
2022/05/31 06:25:48;;;;;;;0.30;0.30;;;18.70;73.00;;;;;;5034900;28;20456;-71
2022/05/31 06:28:14;;;;;;;0.40;0.40;;;19.00;71.50;;;;;;5034964;28;20178;-71
2022/05/31 06:30:40;;;;;;;0.43;0.43;;;19.80;73.80;;;;;;5034771;28;20218;-72
2022/05/31 06:33:05;;;;;;;0.30;0.30;;;20.50;66.70;;;;;;5034675;28;20192;-72
2022/05/31 06:35:31;;;;;;;0.30;0.30;;;21.30;66.40;;;;;;5034931;28;20537;-72
2022/05/31 06:37:57;;;;;;;0.30;0.30;;;22.60;62.10;;;;;;5034874;28;20167;-72
2022/05/31 06:40:23;;;;;;;0.30;0.30;;;23.50;59.10;;;;;;5034610;28;20400;-72
2022/05/31 06:42:48;;;;;;;0.30;0.30;;;24.10;57.40;;;;;;5034892;28;20178;-72
2022/05/31 06:45:14;;;;;;;0.40;0.40;;;25.60;55.20;;;;;;5034912;28;20194;-72
2022/05/31 06:47:40;;;;;;;0.30;0.30;;;26.90;51.50;;;;;;5034683;28;20163;-72
2022/05/31 06:50:06;;;;;;;0.67;0.50;;;28.00;47.30;;;;;;5034570;28;20163;-72
2022/05/31 06:58:00;;;;;;;0.30;0.30;;;31.50;41.30;;;;;;5034271;28;20421;-70
2022/05/31 07:00:26;;;;;;;0.30;0.30;;;32.40;38.50;;;;;;5034320;28;20433;-70
2022/05/31 07:02:54;;;;;;;0.40;0.40;;;32.60;37.10;;;;;;5034078;28;20260;-70
2022/05/31 07:05:21;;;;;;;0.30;0.30;;;32.50;35.40;;;;;;5034100;28;20198;-70
2022/05/31 07:07:47;;;;;;;0.30;0.30;;;31.70;34.20;;;;;;5034130;28;20401;-69
2022/05/31 07:10:13;;;;;;;0.40;0.40;;;31.00;34.00;;;;;;5034108;28;20425;-70
2022/05/31 07:12:40;;;;;;;0.30;0.30;;;30.00;32.80;;;;;;5033942;28;20441;-70
2022/05/31 07:15:06;;;;;;;0.30;0.30;;;28.10;33.80;;;;;;5034084;28;20411;-69
2022/05/31 07:17:32;;;;;;;0.37;0.37;;;27.60;36.90;;;;;;5034139;28;20440;-70
2022/05/31 07:19:58;;;;;;;0.30;0.30;;;28.20;37.70;;;;;;5033628;28;20856;-70
2022/05/31 07:22:24;;;;;;;0.30;0.30;;;28.70;37.00;;;;;;5033736;28;20398;-70
2022/05/31 07:24:49;;;;;;;0.40;0.40;;;29.80;36.40;;;;;;5033891;28;20402;-70
2022/05/31 07:27:15;;;;;;;0.50;0.50;;;31.00;34.00;;;;;;5032674;28;20249;-70
2022/05/31 07:29:41;;;;;;;0.40;0.40;;;31.40;32.80;;;;;;5034062;28;20166;-70
2022/05/31 07:32:07;;;;;;;0.30;0.30;;;30.70;32.00;;;;;;5033481;28;20655;-70
2022/05/31 07:34:33;;;;;;;0.50;0.50;;;30.50;33.20;;;;;;5033423;28;20415;-69
2022/05/31 07:36:59;;;;;;;0.40;0.40;;;30.50;32.00;;;;;;5033883;28;20175;-69
2022/05/31 07:39:25;;;;;;;0.40;0.40;;;30.60;32.40;;;;;;5033483;28;20416;-69
2022/05/31 07:41:54;;;;;;;0.30;0.30;;;30.50;33.10;;;;;;5033601;28;20233;-69
2022/05/31 07:44:21;;;;;;;0.40;0.40;;;30.40;31.60;;;;;;5032101;28;20803;-69
2022/05/31 07:46:47;;;;;;;0.30;0.30;;;30.50;32.50;;;;;;5033644;28;20852;-69
2022/05/31 07:49:13;;;;;;;0.60;0.60;;;30.30;31.20;;;;;;5033498;28;20769;-69
2022/05/31 07:51:40;;;;;;;0.30;0.30;;;30.10;30.70;;;;;;5033443;28;20417;-69
2022/05/31 07:54:06;;;;;;;0.30;0.30;;;30.00;31.90;;;;;;5033372;28;20440;-69
2022/05/31 07:56:32;;;;;;;0.67;0.47;;;29.40;29.90;;;;;;5032522;28;20409;-69
2022/05/31 07:58:58;;;;;;;0.30;0.30;;;27.50;30.70;;;;;;5033444;28;20421;-70
2022/05/31 08:01:25;;;;;;;0.50;0.50;;;27.30;34.20;;;;;;5032385;28;20815;-69
2022/05/31 08:03:52;;;;;;;0.50;0.50;;;26.70;33.50;;;;;;5033253;28;20178;-71
2022/05/31 08:06:21;;;;;;;0.60;0.40;;;26.00;34.40;;;;;;5033346;28;20563;-70
2022/05/31 08:08:47;;;;;;;0.63;0.63;;;25.60;34.40;;;;;;5033232;28;20905;-69
2022/05/31 08:11:17;;;;;;;0.30;0.30;;;25.70;36.50;;;;;;5035999;28;20483;-69
2022/05/31 08:13:43;;;;;;;0.50;0.50;;;25.50;37.80;;;;;;5037163;28;20397;-69
2022/05/31 08:16:11;;;;;;;0.30;0.30;;;25.80;34.30;;;;;;5037329;28;20410;-69
2022/05/31 08:18:38;;;;;;;0.53;0.53;;;25.50;33.50;;;;;;5037378;28;20409;-71
2022/05/31 08:21:07;;;;;;;0.30;0.30;;;25.10;35.40;;;;;;5037449;28;20440;-71
2022/05/31 08:23:34;;;;;;;0.30;0.30;;;24.80;34.90;;;;;;5037207;28;20392;-71
2022/05/31 08:26:01;;;;;;;0.30;0.30;;;24.60;37.20;;;;;;5037051;28;20962;-71
2022/05/31 08:28:27;;;;;;;0.30;0.30;;;24.20;36.00;;;;;;5037262;28;20380;-71
2022/05/31 08:31:05;;;;;;;0.30;0.30;;;23.80;38.00;;;;;;5037241;28;20496;-71
2022/05/31 08:33:31;;;;;;;0.40;0.40;;;23.60;36.30;;;;;;5037054;28;20478;-71
2022/05/31 08:35:57;;;;;;;0.30;0.30;;;24.70;37.40;;;;;;5037100;28;20415;-72
2022/05/31 08:38:23;;;;;;;0.30;0.30;;;26.30;37.40;;;;;;5037146;28;20186;-72
2022/05/31 08:41:08;;;;;;;0.30;0.30;;;27.70;35.10;;;;;;5037094;28;20425;-72
2022/05/31 08:43:45;;;;;;;0.30;0.30;;;28.20;34.60;;;;;;5036966;28;20410;-72
2022/05/31 08:46:15;;;;;;;0.30;0.30;;;28.50;35.10;;;;;;5037050;28;20441;-72
2022/05/31 08:48:57;;;;;;;0.30;0.30;;;28.50;34.70;;;;;;5037039;28;20400;-72
2022/05/31 08:51:52;;;;;;;0.30;0.30;;;28.10;34.30;;;;;;5036747;28;20798;-72
2022/05/31 08:57:18;;;;;;;0.30;0.30;;;28.20;36.00;;;;;;5036911;28;20396;-72
2022/05/31 08:59:55;;;;;;;0.30;0.30;;;29.80;36.10;;;;;;5036729;28;20398;-72
2022/05/31 09:02:29;;;;;;;0.30;0.30;;;31.70;31.40;;;;;;5036371;28;20403;-72
2022/05/31 09:05:06;;;;;;;0.30;0.30;;;32.20;29.00;;;;;;5036752;28;20463;-72
2022/05/31 09:07:46;;;;;;;0.40;0.40;;;33.40;28.70;;;;;;5036608;28;20492;-72
2022/05/31 09:10:38;;;;;;;0.40;0.40;;;33.70;27.70;;;;;;5036553;28;20912;-72
2022/05/31 09:13:15;;;;;;;0.30;0.30;;;34.40;27.30;;;;;;5036288;28;20394;-73
2022/05/31 09:16:17;;;;;;;0.90;0.90;;;34.10;27.50;;;;;;5036540;28;20439;-72
2022/05/31 09:18:55;;;;;;;0.40;0.40;;;33.90;27.70;;;;;;5036317;28;20429;-73
2022/05/31 09:21:27;;;;;;;0.30;0.30;;;33.90;28.30;;;;;;5036268;28;20451;-72
2022/05/31 09:23:55;;;;;;;0.30;0.30;;;33.90;29.00;;;;;;5036125;28;20405;-72
2022/05/31 09:26:42;;;;;;;0.30;0.30;;;33.20;29.20;;;;;;5034923;28;20512;-72
2022/05/31 09:29:15;;;;;;;0.30;0.30;;;32.60;30.00;;;;;;5036296;28;20875;-72
2022/05/31 09:31:53;;;;;;;0.40;0.40;;;31.90;30.30;;;;;;5036089;28;20450;-73
2022/05/31 09:34:22;;;;;;;0.50;0.43;;;32.00;29.90;;;;;;5035939;28;20791;-72
2022/05/31 09:37:03;;;;;;;0.30;0.30;;;30.80;30.50;;;;;;5036043;28;20488;-72
2022/05/31 09:39:58;;;;;;;0.50;0.40;;;31.20;33.90;;;;;;5036509;28;20405;-72
2022/05/31 09:42:36;;;;;;;0.30;0.30;;;31.10;30.60;;;;;;5035689;28;20422;-72
2022/05/31 09:45:16;;;;;;;0.30;0.30;;;30.90;33.20;;;;;;5035922;28;20405;-72
2022/05/31 09:47:41;;;;;;;0.30;0.30;;;31.20;32.30;;;;;;5035869;28;20898;-72
2022/05/31 09:50:08;;;;;;;0.30;0.30;;;30.50;31.20;;;;;;5035589;28;20401;-72
2022/05/31 09:52:45;;;;;;;0.50;0.50;;;30.30;32.50;;;;;;5035634;28;20258;-72
2022/05/31 09:58:10;;;;;;;0.40;0.40;;;29.90;32.90;;;;;;5035723;28;20444;-72
2022/05/31 10:01:13;;;;;;;0.30;0.30;;;29.90;33.60;;;;;;5035656;28;20520;-72
2022/05/31 10:03:40;;;;;;;0.30;0.30;;;30.40;33.80;;;;;;5034139;28;20417;-72
2022/05/31 10:06:16;;;;;;;0.30;0.30;;;30.70;33.50;;;;;;5035465;28;20811;-72
2022/05/31 10:08:42;;;;;;;0.40;0.40;;;30.20;32.60;;;;;;5035757;28;20412;-72
2022/05/31 10:11:14;;;;;;;0.40;0.40;;;30.20;31.60;;;;;;5033968;28;20476;-73
2022/05/31 10:13:43;;;;;;;0.30;0.30;;;29.30;33.30;;;;;;5033893;28;20436;-72
2022/05/31 10:16:18;;;;;;;0.30;0.30;;;28.00;35.70;;;;;;5035384;28;20919;-72
2022/05/31 10:18:53;;;;;;;0.30;0.30;;;28.10;35.20;;;;;;5035170;28;20410;-72
2022/05/31 10:21:30;;;;;;;0.40;0.40;;;28.00;37.90;;;;;;5035061;28;20429;-72
2022/05/31 10:24:03;;;;;;;0.40;0.40;;;28.60;36.70;;;;;;5034902;28;20408;-72
2022/05/31 10:26:32;;;;;;;0.30;0.30;;;28.50;32.40;;;;;;5034940;28;20464;-71
2022/05/31 10:29:00;;;;;;;0.30;0.30;;;27.90;33.30;;;;;;5034880;28;20890;-72
2022/05/31 10:31:35;;;;;;;0.30;0.30;;;27.30;33.40;;;;;;5034965;28;20914;-71
2022/05/31 10:34:38;;;;;;;0.30;0.30;;;26.40;37.20;;;;;;5034074;28;20416;-71
2022/05/31 10:37:20;;;;;;;0.30;0.30;;;25.70;36.80;;;;;;5033653;28;20384;-72
2022/05/31 10:40:07;;;;;;;0.30;0.30;;;25.10;37.70;;;;;;5034856;28;20374;-72
2022/05/31 10:42:37;;;;;;;0.30;0.30;;;24.70;38.20;;;;;;5034666;28;20421;-72
2022/05/31 10:45:06;;;;;;;0.40;0.40;;;23.70;38.40;;;;;;5034545;28;20380;-71
2022/05/31 10:47:32;;;;;;;0.40;0.40;;;24.00;40.60;;;;;;5034759;28;20417;-71
2022/05/31 10:49:58;;;;;;;0.30;0.30;;;24.20;42.20;;;;;;5034581;28;20413;-71
2022/05/31 10:52:52;;;;;;;0.40;0.40;;;24.60;42.00;;;;;;5034481;28;20424;-72
2022/05/31 10:55:33;;;;;;;0.40;0.40;;;24.70;39.10;;;;;;5035000;28;20739;-72
2022/05/31 10:58:15;;;;;;;0.30;0.30;;;24.50;38.60;;;;;;5034462;28;20426;-72
2022/05/31 11:00:59;;;;;;;0.30;0.30;;;24.20;39.70;;;;;;5034695;28;20800;-72
2022/05/31 11:03:46;;;;;;;0.40;0.40;;;24.30;41.40;;;;;;5034146;28;20467;-71
2022/05/31 11:07:05;;;;;;;0.30;0.30;;;23.70;40.20;;;;;;5034458;28;20472;-72
2022/05/31 11:13:02;;;;;;;0.30;0.30;;;22.60;42.70;;;;;;5032649;28;20391;-71
2022/05/31 11:15:52;;;;;;;0.30;0.30;;;22.20;43.70;;;;;;5033425;28;20404;-72
2022/05/31 11:18:33;;;;;;;0.33;0.33;;;21.70;44.70;;;;;;5034329;28;20413;-72
2022/05/31 11:21:13;;;;;;;0.40;0.40;;;21.40;43.40;;;;;;5033070;28;20457;-71
2022/05/31 11:24:26;;;;;;;0.30;0.30;;;21.10;46.20;;;;;;5034164;28;20393;-71
2022/05/31 11:26:52;;;;;;;0.30;0.30;;;20.60;45.40;;;;;;5034202;28;20517;-71
2022/05/31 11:29:28;;;;;;;0.30;0.30;;;20.10;47.30;;;;;;5034391;28;20419;-71
2022/05/31 11:32:12;;;;;;;0.30;0.30;;;20.10;48.70;;;;;;5033742;28;20195;-71
2022/05/31 11:34:44;;;;;;;0.30;0.30;;;20.00;50.50;;;;;;5034167;28;20433;-71
2022/05/31 11:37:18;;;;;;;0.40;0.40;;;20.00;48.70;;;;;;5034278;28;20402;-71
2022/05/31 11:40:32;;;;;;;0.40;0.40;;;19.80;47.80;;;;;;5031215;28;20412;-71
2022/05/31 11:43:36;;;;;;;0.30;0.30;;;19.90;49.70;;;;;;5009133;28;20427;-71
2022/05/31 11:46:44;;;;;;;0.30;0.30;;;20.10;48.30;;;;;;4930454;29;20676;-71
2022/05/31 11:49:32;;;;;;;1.07;0.60;;;20.40;47.00;;;;;;4876106;29;20436;-71
2022/05/31 11:52:35;;;;;;;0.47;0.47;;;20.80;47.50;;;;;;5024558;28;20873;-71
2022/05/31 11:55:26;;;;;;;0.30;0.30;;;21.10;47.20;;;;;;5033299;28;20409;-71
2022/05/31 11:58:07;;;;;;;0.30;0.30;;;21.60;46.50;;;;;;5032357;28;20413;-71
2022/05/31 12:00:41;;;;;;;0.30;0.30;;;21.70;46.90;;;;;;5033525;28;20479;-71
2022/05/31 12:03:17;;;;;;;0.30;0.30;;;21.70;46.30;;;;;;5033212;28;20406;-71
2022/05/31 12:05:50;;;;;;;0.30;0.30;;;21.70;47.10;;;;;;5033491;28;20532;-71
2022/05/31 12:08:24;;;;;;;1.23;1.23;;;22.10;46.70;;;;;;5033561;28;20452;-71
2022/05/31 12:11:21;;;;;;;0.30;0.30;;;22.10;47.80;;;;;;5033499;28;20419;-71
2022/05/31 12:13:48;;;;;;;0.30;0.30;;;21.90;49.10;;;;;;5031406;28;20920;-71
2022/05/31 12:16:15;;;;;;;0.30;0.30;;;22.10;47.20;;;;;;5033267;28;20496;-71
2022/05/31 12:19:07;;;;;;;0.30;0.30;;;22.30;49.30;;;;;;5033156;28;20412;-71
2022/05/31 12:21:46;;;;;;;0.30;0.30;;;22.40;46.60;;;;;;5022869;28;20498;-71
2022/05/31 12:24:21;;;;;;;0.60;0.60;;;22.40;48.00;;;;;;5033047;28;20416;-71
2022/05/31 12:27:02;;;;;;;0.30;0.30;;;22.50;47.90;;;;;;5033178;28;20451;-71
2022/05/31 12:30:04;;;;;;;0.40;0.40;;;22.30;46.00;;;;;;5033168;28;20410;-71
2022/05/31 12:32:35;;;;;;;0.30;0.30;;;22.60;47.50;;;;;;5033223;28;20391;-71
2022/05/31 12:35:04;;;;;;;0.30;0.30;;;22.80;46.70;;;;;;5033110;28;20807;-71
2022/05/31 12:38:04;;;;;;;0.30;0.30;;;22.80;46.70;;;;;;5033167;28;20408;-71
2022/05/31 12:40:32;;;;;;;0.30;0.30;;;22.40;47.50;;;;;;5033232;28;20432;-71
2022/05/31 12:43:03;;;;;;;0.30;0.30;;;22.30;47.10;;;;;;5031607;28;20970;-71
2022/05/31 12:45:35;;;;;;;0.50;0.50;;;22.20;46.80;;;;;;5032642;28;20456;-71
2022/05/31 12:48:16;;;;;;;0.30;0.30;;;22.10;48.60;;;;;;5032985;28;20922;-71
2022/05/31 12:50:53;;;;;;;0.40;0.40;;;21.90;47.10;;;;;;5033191;28;20425;-71
2022/05/31 12:53:43;;;;;;;0.93;0.60;;;21.90;49.20;;;;;;5032781;28;20398;-71
2022/05/31 12:56:11;;;;;;;0.40;0.40;;;21.60;47.80;;;;;;5032338;28;20422;-71
2022/05/31 12:58:45;;;;;;;0.40;0.40;;;21.50;47.50;;;;;;5036737;28;20409;-71
2022/05/31 13:01:11;;;;;;;0.30;0.30;;;21.40;47.90;;;;;;5036449;28;20478;-71
2022/05/31 13:03:42;;;;;;;0.30;0.30;;;21.60;47.70;;;;;;5036374;28;20932;-71
2022/05/31 13:06:24;;;;;;;0.30;0.30;;;21.80;48.00;;;;;;5036668;28;20246;-71
2022/05/31 13:08:54;;;;;;;0.50;0.50;;;21.90;48.50;;;;;;5036565;28;20429;-70
2022/05/31 13:20:29;;;;;;;0.30;0.30;;;21.90;49.50;;;;;;5036115;28;20613;-71
2022/05/31 13:23:23;;;;;;;0.40;0.40;;;21.80;48.80;;;;;;5036092;28;20392;-71
2022/05/31 13:26:05;;;;;;;0.60;0.40;;;21.50;47.60;;;;;;5035982;28;20454;-71
2022/05/31 13:28:40;;;;;;;0.30;0.30;;;21.30;47.90;;;;;;5036690;28;20474;-71
2022/05/31 13:31:13;;;;;;;0.30;0.30;;;21.30;49.00;;;;;;5036145;28;20437;-71
2022/05/31 13:33:39;;;;;;;0.30;0.30;;;21.40;48.40;;;;;;5035949;28;20402;-71
2022/05/31 13:36:19;;;;;;;0.30;0.30;;;21.40;49.60;;;;;;5036052;28;20417;-70
2022/05/31 13:38:47;;;;;;;0.30;0.30;;;21.50;49.50;;;;;;5036052;28;20461;-71
2022/05/31 13:41:15;;;;;;;0.30;0.30;;;21.60;49.80;;;;;;5035871;28;20533;-71
2022/05/31 13:44:10;;;;;;;0.30;0.30;;;21.60;49.60;;;;;;5035690;28;20420;-71